createdAt,value
2022-08-07T00:00:21.501Z,1.70
2022-08-07T00:02:35.502Z,2.00
2022-08-07T00:02:39.614Z,1.80
2022-08-07T00:03:21.468Z,1.80
2022-08-07T00:04:24.370Z,1.90
2022-08-07T00:05:23.652Z,2.00
2022-08-07T00:06:21.468Z,1.80
2022-08-07T00:07:21.472Z,1.80
2022-08-07T00:08:21.468Z,1.90
2022-08-07T00:09:22.326Z,2.00
2022-08-07T00:10:27.214Z,2.10
2022-08-07T00:11:21.453Z,2.20
2022-08-07T00:12:21.455Z,2.00
2022-08-07T00:13:23.850Z,1.70
2022-08-07T00:14:21.444Z,2.00
2022-08-07T00:15:21.453Z,2.00
2022-08-07T00:16:21.640Z,1.80
2022-08-07T00:17:21.450Z,1.70
2022-08-07T00:18:24.540Z,1.80
2022-08-07T00:19:26.115Z,2.00
2022-08-07T00:20:29.781Z,1.70
2022-08-07T00:21:57.225Z,2.40
2022-08-07T00:22:24.705Z,1.80
2022-08-07T00:23:21.692Z,1.70
2022-08-07T00:24:21.426Z,1.60
2022-08-07T00:25:21.428Z,1.80
2022-08-07T00:26:48.715Z,1.60
2022-08-07T00:27:22.607Z,1.80
2022-08-07T00:28:22.142Z,2.00
2022-08-07T00:29:23.269Z,1.70
2022-08-07T00:30:26.757Z,2.00
2022-08-07T00:31:21.415Z,1.90
2022-08-07T00:32:28.448Z,1.70
2022-08-07T00:33:21.409Z,1.60
2022-08-07T00:34:21.627Z,2.00
2022-08-07T00:35:21.402Z,1.80
2022-08-07T00:36:21.401Z,1.90
2022-08-07T00:37:21.404Z,1.70
2022-08-07T00:38:31.404Z,1.80
2022-08-07T00:39:21.422Z,1.60
2022-08-07T00:40:39.374Z,1.70
2022-08-07T00:41:21.382Z,1.50
2022-08-07T00:42:29.021Z,1.80
2022-08-07T00:44:00.887Z,1.60
2022-08-07T00:44:21.389Z,1.50
2022-08-07T00:45:21.377Z,1.70
2022-08-07T00:46:21.383Z,2.00
2022-08-07T00:48:09.518Z,1.90
2022-08-07T00:48:24.893Z,1.50
2022-08-07T00:49:24.836Z,1.80
2022-08-07T00:50:50.817Z,1.80
2022-08-07T00:51:21.365Z,1.90
2022-08-07T00:52:21.362Z,1.90
2022-08-07T00:53:21.355Z,1.80
2022-08-07T00:54:22.395Z,1.80
2022-08-07T00:55:46.601Z,1.30
2022-08-07T00:56:21.359Z,2.00
2022-08-07T00:57:21.354Z,1.90
2022-08-07T00:58:21.347Z,1.50
2022-08-07T00:59:35.068Z,1.50
2022-08-07T01:00:21.353Z,1.50
2022-08-07T01:01:21.442Z,1.70
2022-08-07T01:02:28.341Z,1.60
2022-08-07T01:03:21.332Z,1.60
2022-08-07T01:04:24.590Z,1.50
2022-08-07T01:05:24.641Z,1.60
2022-08-07T01:06:21.853Z,1.60
2022-08-07T01:07:21.339Z,1.60
2022-08-07T01:08:21.320Z,1.60
2022-08-07T01:10:04.708Z,1.80
2022-08-07T01:10:21.318Z,1.60
2022-08-07T01:12:09.677Z,1.80
2022-08-07T01:12:29.800Z,1.90
2022-08-07T01:13:21.323Z,1.80
2022-08-07T01:14:28.725Z,2.10
2022-08-07T01:15:21.353Z,1.90
2022-08-07T01:16:30.582Z,1.90
2022-08-07T01:17:21.301Z,1.80
2022-08-07T01:18:21.302Z,1.90
2022-08-07T01:19:21.295Z,2.00
2022-08-07T01:20:21.289Z,2.10
2022-08-07T01:21:24.385Z,2.30
2022-08-07T01:22:22.947Z,1.90
2022-08-07T01:23:21.285Z,2.30
2022-08-07T01:24:21.765Z,1.90
2022-08-07T01:25:54.668Z,2.00
2022-08-07T01:26:21.284Z,2.00
2022-08-07T01:27:21.284Z,2.00
2022-08-07T01:28:21.294Z,2.00
2022-08-07T01:29:22.115Z,1.80
2022-08-07T01:30:21.265Z,1.90
2022-08-07T01:31:21.269Z,2.00
2022-08-07T01:32:22.476Z,1.90
2022-08-07T01:33:21.261Z,1.90
2022-08-07T01:34:30.613Z,1.90
2022-08-07T01:35:21.255Z,1.60
2022-08-07T01:36:21.252Z,1.80
2022-08-07T01:37:21.249Z,2.00
2022-08-07T01:38:24.996Z,1.60
2022-08-07T01:39:21.304Z,1.90
2022-08-07T01:40:21.253Z,1.90
2022-08-07T01:41:25.939Z,1.80
2022-08-07T01:42:38.654Z,1.40
2022-08-07T01:43:21.231Z,1.70
2022-08-07T01:44:21.236Z,1.60
2022-08-07T01:45:22.763Z,1.80
2022-08-07T01:46:21.459Z,1.70
2022-08-07T01:48:29.855Z,2.10
2022-08-07T01:48:30.530Z,1.90
2022-08-07T01:49:22.135Z,2.00
2022-08-07T01:50:29.090Z,1.50
2022-08-07T01:52:02.129Z,2.00
2022-08-07T01:52:21.211Z,2.00
2022-08-07T01:53:21.788Z,1.90
2022-08-07T01:54:33.209Z,2.10
2022-08-07T01:55:22.226Z,1.80
2022-08-07T01:56:21.203Z,1.80
2022-08-07T01:57:24.940Z,1.80
2022-08-07T01:58:28.875Z,1.90
2022-08-07T01:59:21.201Z,2.00
2022-08-07T02:00:28.869Z,1.90
2022-08-07T02:01:59.179Z,1.90
2022-08-07T02:02:32.803Z,1.80
2022-08-07T02:03:26.272Z,1.60
2022-08-07T02:04:21.270Z,1.70
2022-08-07T02:05:43.426Z,1.50
2022-08-07T02:06:31.737Z,1.80
2022-08-07T02:07:21.277Z,1.60
2022-08-07T02:08:21.181Z,1.90
2022-08-07T02:09:51.854Z,1.60
2022-08-07T02:10:21.165Z,2.10
2022-08-07T02:11:30.750Z,1.70
2022-08-07T02:12:29.044Z,2.10
2022-08-07T02:13:21.161Z,1.80
2022-08-07T02:14:36.027Z,1.70
2022-08-07T02:15:21.155Z,1.70
2022-08-07T02:16:28.522Z,1.70
2022-08-07T02:17:27.398Z,1.70
2022-08-07T02:18:21.150Z,2.00
2022-08-07T02:20:04.043Z,1.80
2022-08-07T02:20:23.668Z,1.90
2022-08-07T02:21:21.144Z,1.90
2022-08-07T02:22:21.135Z,1.80
2022-08-07T02:23:24.047Z,1.80
2022-08-07T02:24:21.138Z,2.00
2022-08-07T02:25:21.127Z,1.70
2022-08-07T02:26:32.588Z,1.80
2022-08-07T02:27:21.166Z,2.00
2022-08-07T02:28:24.772Z,1.70
2022-08-07T02:29:21.964Z,2.40
2022-08-07T02:30:21.117Z,1.90
2022-08-07T02:31:28.745Z,1.90
2022-08-07T02:32:23.388Z,2.10
2022-08-07T02:33:21.115Z,1.70
2022-08-07T02:34:21.111Z,1.80
2022-08-07T02:36:29.618Z,2.10
2022-08-07T02:36:30.302Z,1.70
2022-08-07T02:37:21.109Z,1.90
2022-08-07T02:38:22.730Z,1.60
2022-08-07T02:39:43.755Z,1.90
2022-08-07T02:40:30.575Z,1.80
2022-08-07T02:41:21.749Z,1.90
2022-08-07T02:42:21.100Z,2.10
2022-08-07T02:43:21.093Z,2.40
2022-08-07T02:44:21.071Z,1.80
2022-08-07T02:46:00.351Z,1.80
2022-08-07T02:46:21.072Z,2.30
2022-08-07T02:47:23.648Z,2.10
2022-08-07T02:48:21.067Z,2.00
2022-08-07T02:49:29.257Z,1.50
2022-08-07T02:50:21.065Z,2.20
2022-08-07T02:51:41.921Z,2.00
2022-08-07T02:52:21.417Z,1.80
2022-08-07T02:53:21.056Z,1.90
2022-08-07T02:54:21.069Z,2.20
2022-08-07T02:55:27.726Z,1.50
2022-08-07T02:56:21.862Z,1.60
2022-08-07T02:57:21.143Z,1.90
2022-08-07T02:58:21.559Z,1.90
2022-08-07T02:59:24.089Z,1.90
2022-08-07T03:00:21.026Z,1.60
2022-08-07T03:01:35.791Z,1.80
2022-08-07T03:02:21.096Z,1.80
2022-08-07T03:03:22.621Z,1.90
2022-08-07T03:04:21.027Z,2.00
2022-08-07T03:05:23.119Z,2.00
2022-08-07T03:06:26.149Z,1.70
2022-08-07T03:07:25.708Z,2.00
2022-08-07T03:08:26.737Z,2.00
2022-08-07T03:09:43.585Z,1.80
2022-08-07T03:10:23.487Z,2.10
2022-08-07T03:11:21.003Z,1.90
2022-08-07T03:12:22.059Z,2.10
2022-08-07T03:13:21.002Z,2.20
2022-08-07T03:14:22.543Z,1.90
2022-08-07T03:15:30.127Z,2.00
2022-08-07T03:16:22.834Z,2.30
2022-08-07T03:17:22.206Z,2.00
2022-08-07T03:18:20.984Z,1.90
2022-08-07T03:19:20.978Z,2.00
2022-08-07T03:20:20.968Z,2.10
2022-08-07T03:21:20.972Z,2.20
2022-08-07T03:22:20.967Z,2.00
2022-08-07T03:23:20.962Z,2.00
2022-08-07T03:24:27.206Z,1.80
2022-08-07T03:25:21.366Z,1.90
2022-08-07T03:26:23.691Z,2.10
2022-08-07T03:27:30.531Z,2.10
2022-08-07T03:28:38.067Z,2.00
2022-08-07T03:29:20.950Z,1.90
2022-08-07T03:30:20.948Z,2.00
2022-08-07T03:31:26.125Z,1.90
2022-08-07T03:32:20.939Z,2.10
2022-08-07T03:33:20.934Z,2.00
2022-08-07T03:34:21.947Z,1.90
2022-08-07T03:35:26.198Z,1.70
2022-08-07T03:36:20.921Z,1.70
2022-08-07T03:37:20.929Z,1.70
2022-08-07T03:38:29.763Z,1.70
2022-08-07T03:39:58.852Z,1.90
2022-08-07T03:40:22.278Z,2.40
2022-08-07T03:41:20.910Z,2.30
2022-08-07T03:42:20.911Z,2.40
2022-08-07T03:43:20.897Z,1.80
2022-08-07T03:44:21.776Z,1.90
2022-08-07T03:45:31.092Z,2.20
2022-08-07T03:46:20.900Z,1.90
2022-08-07T03:47:20.895Z,1.80
2022-08-07T03:48:20.881Z,1.90
2022-08-07T03:49:20.877Z,1.60
2022-08-07T03:50:23.105Z,1.90
2022-08-07T03:51:20.930Z,2.20
2022-08-07T03:52:22.887Z,2.00
2022-08-07T03:53:20.872Z,2.40
2022-08-07T03:54:35.232Z,1.90
2022-08-07T03:55:20.879Z,1.80
2022-08-07T03:56:33.166Z,2.30
2022-08-07T03:58:34.960Z,2.00
2022-08-07T03:59:05.735Z,1.80
2022-08-07T03:59:21.084Z,1.90
2022-08-07T04:00:20.992Z,2.20
2022-08-07T04:01:20.845Z,2.00
2022-08-07T04:02:20.854Z,1.70
2022-08-07T04:03:20.857Z,2.00
2022-08-07T04:04:20.836Z,1.90
2022-08-07T04:05:24.011Z,1.90
2022-08-07T04:06:37.026Z,1.80
2022-08-07T04:07:22.903Z,2.00
2022-08-07T04:08:20.934Z,2.30
2022-08-07T04:09:23.065Z,1.80
2022-08-07T04:10:20.813Z,1.70
2022-08-07T04:12:20.776Z,1.80
2022-08-07T04:12:27.200Z,2.10
2022-08-07T04:13:20.811Z,1.70
2022-08-07T04:14:37.739Z,2.00
2022-08-07T04:15:20.800Z,2.00
2022-08-07T04:16:31.349Z,1.80
2022-08-07T04:17:21.863Z,1.80
2022-08-07T04:18:57.970Z,1.80
2022-08-07T04:19:20.780Z,1.70
2022-08-07T04:20:20.788Z,2.10
2022-08-07T04:21:20.780Z,1.90
2022-08-07T04:22:20.773Z,1.80
2022-08-07T04:23:20.767Z,1.80
2022-08-07T04:24:30.747Z,1.80
2022-08-07T04:25:20.779Z,1.90
2022-08-07T04:26:21.940Z,1.70
2022-08-07T04:27:25.704Z,1.80
2022-08-07T04:28:21.722Z,1.90
2022-08-07T04:29:20.750Z,1.80
2022-08-07T04:30:21.197Z,1.70
2022-08-07T04:31:38.713Z,1.70
2022-08-07T04:32:27.253Z,1.60
2022-08-07T04:33:20.750Z,1.70
2022-08-07T04:34:24.266Z,1.80
2022-08-07T04:35:21.418Z,2.20
2022-08-07T04:36:22.901Z,2.10
2022-08-07T04:37:20.787Z,1.80
2022-08-07T04:38:20.729Z,1.80
2022-08-07T04:39:25.861Z,1.80
2022-08-07T04:40:20.726Z,2.00
2022-08-07T04:41:20.723Z,1.80
2022-08-07T04:42:20.710Z,1.50
2022-08-07T04:43:20.717Z,1.80
2022-08-07T04:44:20.707Z,1.50
2022-08-07T04:45:44.487Z,2.10
2022-08-07T04:46:29.632Z,1.60
2022-08-07T04:47:56.737Z,1.80
2022-08-07T04:48:20.708Z,1.50
2022-08-07T04:49:24.814Z,1.80
2022-08-07T04:50:22.298Z,1.60
2022-08-07T04:51:20.678Z,1.90
2022-08-07T04:52:20.679Z,1.60
2022-08-07T04:53:39.966Z,1.70
2022-08-07T04:54:22.595Z,1.60
2022-08-07T04:58:10.641Z,1.80
2022-08-07T04:58:11.334Z,1.70
2022-08-07T04:58:16.495Z,1.80
2022-08-07T04:58:47.296Z,1.90
2022-08-07T05:00:08.029Z,1.90
2022-08-07T05:00:30.113Z,1.90
2022-08-07T05:01:20.725Z,1.70
2022-08-07T05:02:20.820Z,1.70
2022-08-07T05:04:00.168Z,1.60
2022-08-07T05:04:20.627Z,2.00
2022-08-07T05:05:52.186Z,1.90
2022-08-07T05:06:20.631Z,2.10
2022-08-07T05:07:21.139Z,1.60
2022-08-07T05:08:59.167Z,1.80
2022-08-07T05:09:43.060Z,1.80
2022-08-07T05:10:20.619Z,1.80
2022-08-07T05:11:26.155Z,2.00
2022-08-07T05:12:27.125Z,1.90
2022-08-07T05:14:53.043Z,1.60
2022-08-07T05:14:55.368Z,1.70
2022-08-07T05:15:23.074Z,1.80
2022-08-07T05:16:20.598Z,1.90
2022-08-07T05:17:52.869Z,1.60
2022-08-07T05:18:20.632Z,1.70
2022-08-07T05:19:20.592Z,2.00
2022-08-07T05:20:20.587Z,1.80
2022-08-07T05:22:00.519Z,1.80
2022-08-07T05:22:26.753Z,1.80
2022-08-07T05:23:20.589Z,2.10
2022-08-07T05:24:20.582Z,2.00
2022-08-07T05:25:25.957Z,2.10
2022-08-07T05:26:23.991Z,1.80
2022-08-07T05:28:03.182Z,1.80
2022-08-07T05:28:23.421Z,1.70
2022-08-07T05:29:20.562Z,1.70
2022-08-07T05:30:30.018Z,1.70
2022-08-07T05:31:20.563Z,1.70
2022-08-07T05:32:20.566Z,1.90
2022-08-07T05:33:20.854Z,2.10
2022-08-07T05:34:20.559Z,1.90
2022-08-07T05:35:23.804Z,1.60
2022-08-07T05:36:22.626Z,1.60
2022-08-07T05:37:25.337Z,1.80
2022-08-07T05:38:58.365Z,1.70
2022-08-07T05:40:16.646Z,2.10
2022-08-07T05:40:20.748Z,1.70
2022-08-07T05:41:21.889Z,1.80
2022-08-07T05:42:34.333Z,1.90
2022-08-07T05:43:49.890Z,1.70
2022-08-07T05:44:29.246Z,1.70
2022-08-07T05:45:46.988Z,1.70
2022-08-07T05:46:20.535Z,2.00
2022-08-07T05:47:20.915Z,1.90
2022-08-07T05:48:20.538Z,2.20
2022-08-07T05:49:20.523Z,2.10
2022-08-07T05:50:20.531Z,2.00
2022-08-07T05:51:20.519Z,1.80
2022-08-07T05:52:20.704Z,1.90
2022-08-07T05:54:13.597Z,1.70
2022-08-07T05:54:31.355Z,1.90
2022-08-07T05:55:20.521Z,1.90
2022-08-07T05:56:20.514Z,1.50
2022-08-07T05:57:20.567Z,1.80
2022-08-07T05:58:30.251Z,1.80
2022-08-07T05:59:20.832Z,1.80
2022-08-07T06:00:20.514Z,1.70
2022-08-07T06:01:20.554Z,2.10
2022-08-07T06:02:28.537Z,1.80
2022-08-07T06:03:20.531Z,1.90
2022-08-07T06:04:20.521Z,1.70
2022-08-07T06:05:28.086Z,1.90
2022-08-07T06:06:20.521Z,2.00
2022-08-07T06:07:23.156Z,1.70
2022-08-07T06:08:29.897Z,1.90
2022-08-07T06:09:20.514Z,2.30
2022-08-07T06:10:20.522Z,2.00
2022-08-07T06:11:20.536Z,2.00
2022-08-07T06:12:20.953Z,1.90
2022-08-07T06:13:20.864Z,1.70
2022-08-07T06:14:21.033Z,1.60
2022-08-07T06:15:20.531Z,1.60
2022-08-07T06:16:20.528Z,1.70
2022-08-07T06:17:22.284Z,1.80
2022-08-07T06:18:20.535Z,2.00
2022-08-07T06:19:47.442Z,1.60
2022-08-07T06:20:31.848Z,1.80
2022-08-07T06:22:14.978Z,1.60
2022-08-07T06:22:23.938Z,2.00
2022-08-07T06:23:24.825Z,1.80
2022-08-07T06:24:38.695Z,1.70
2022-08-07T06:25:20.526Z,1.70
2022-08-07T06:26:20.525Z,1.60
2022-08-07T06:27:22.796Z,1.90
2022-08-07T06:28:27.651Z,1.90
2022-08-07T06:29:20.528Z,1.50
2022-08-07T06:30:32.226Z,1.70
2022-08-07T06:31:20.528Z,2.00
2022-08-07T06:32:20.533Z,1.90
2022-08-07T06:33:20.526Z,2.10
2022-08-07T06:34:21.551Z,1.80
2022-08-07T06:35:20.528Z,2.00
2022-08-07T06:36:34.786Z,1.90
2022-08-07T06:37:20.754Z,1.80
2022-08-07T06:38:20.909Z,2.00
2022-08-07T06:40:17.915Z,1.90
2022-08-07T06:40:21.594Z,2.80
2022-08-07T06:41:29.384Z,1.90
2022-08-07T06:42:26.586Z,1.90
2022-08-07T06:43:21.334Z,2.10
2022-08-07T06:44:20.533Z,2.30
2022-08-07T06:45:21.205Z,2.20
2022-08-07T06:46:34.997Z,2.40
2022-08-07T06:47:26.979Z,2.30
2022-08-07T06:48:25.313Z,2.10
2022-08-07T06:49:20.528Z,2.10
2022-08-07T06:50:20.527Z,1.70
2022-08-07T06:51:24.507Z,1.80
2022-08-07T06:52:32.079Z,2.10
2022-08-07T06:55:29.875Z,1.60
2022-08-07T06:55:32.195Z,1.80
2022-08-07T06:55:33.713Z,1.70
2022-08-07T06:56:20.510Z,1.80
2022-08-07T06:57:20.576Z,1.50
2022-08-07T06:58:21.454Z,2.10
2022-08-07T07:00:14.030Z,1.60
2022-08-07T07:00:20.503Z,1.70
2022-08-07T07:01:20.630Z,1.90
2022-08-07T07:02:48.488Z,2.10
2022-08-07T07:03:39.627Z,1.60
2022-08-07T07:04:28.106Z,1.60
2022-08-07T07:06:02.788Z,1.90
2022-08-07T07:06:24.000Z,1.60
2022-08-07T07:07:59.840Z,1.70
2022-08-07T07:08:26.465Z,1.80
2022-08-07T07:09:20.517Z,1.90
2022-08-07T07:10:21.333Z,1.60
2022-08-07T07:12:07.700Z,1.70
2022-08-07T07:12:30.700Z,1.50
2022-08-07T07:13:56.245Z,1.70
2022-08-07T07:14:21.708Z,1.70
2022-08-07T07:15:23.980Z,1.40
2022-08-07T07:16:20.487Z,1.70
2022-08-07T07:17:20.478Z,1.50
2022-08-07T07:18:37.669Z,1.60
2022-08-07T07:19:58.049Z,1.70
2022-08-07T07:20:20.485Z,1.60
2022-08-07T07:21:20.483Z,1.50
2022-08-07T07:22:35.871Z,1.50
2022-08-07T07:24:10.106Z,1.60
2022-08-07T07:24:20.485Z,1.60
2022-08-07T07:26:32.717Z,1.80
2022-08-07T07:26:33.920Z,1.40
2022-08-07T07:27:20.522Z,1.30
2022-08-07T07:28:42.670Z,1.60
2022-08-07T07:29:55.868Z,1.50
2022-08-07T07:30:32.569Z,1.60
2022-08-07T07:31:21.606Z,1.40
2022-08-07T07:32:20.477Z,1.70
2022-08-07T07:33:20.467Z,1.50
2022-08-07T07:34:20.470Z,1.60
2022-08-07T07:35:20.464Z,1.60
2022-08-07T07:36:20.474Z,1.50
2022-08-07T07:37:44.003Z,2.20
2022-08-07T07:38:20.461Z,1.70
2022-08-07T07:39:20.567Z,1.60
2022-08-07T07:40:20.470Z,1.60
2022-08-07T07:41:20.476Z,1.50
2022-08-07T07:42:20.793Z,1.60
2022-08-07T07:43:27.730Z,2.20
2022-08-07T07:44:25.745Z,4.00
2022-08-07T07:45:24.508Z,16.30
2022-08-07T07:46:37.148Z,16.20
2022-08-07T07:47:23.950Z,33.10
2022-08-07T07:48:34.732Z,39.30
2022-08-07T07:50:33.398Z,77.70
2022-08-07T07:50:36.255Z,93.90
2022-08-07T07:51:20.466Z,108.10
2022-08-07T07:52:20.464Z,124.40
2022-08-07T07:53:25.606Z,141.20
2022-08-07T07:54:20.476Z,140.20
2022-08-07T07:55:20.459Z,143.40
2022-08-07T07:56:30.669Z,139.40
2022-08-07T07:57:20.502Z,140.20
2022-08-07T07:58:20.469Z,141.30
2022-08-07T07:59:51.476Z,144.20
2022-08-07T08:00:28.865Z,143.30
2022-08-07T08:02:03.892Z,142.40
2022-08-07T08:02:34.124Z,140.50
2022-08-07T08:04:06.281Z,139.00
2022-08-07T08:04:25.374Z,141.00
2022-08-07T08:05:20.461Z,139.20
2022-08-07T08:06:20.475Z,137.60
2022-08-07T08:07:20.470Z,138.20
2022-08-07T08:08:32.289Z,138.00
2022-08-07T08:09:20.495Z,134.50
2022-08-07T08:10:37.999Z,135.80
2022-08-07T08:11:59.921Z,18.20
2022-08-07T08:12:50.337Z,19.00
2022-08-07T08:13:20.478Z,22.60
2022-08-07T08:14:24.554Z,42.40
2022-08-07T08:15:23.178Z,35.50
2022-08-07T08:16:20.476Z,26.20
2022-08-07T08:17:57.587Z,15.00
2022-08-07T08:18:20.725Z,7.90
2022-08-07T08:20:17.734Z,6.80
2022-08-07T08:20:23.097Z,5.60
2022-08-07T08:21:20.484Z,5.10
2022-08-07T08:22:20.494Z,3.80
2022-08-07T08:23:20.681Z,2.80
2022-08-07T08:24:44.942Z,2.20
2022-08-07T08:25:27.078Z,2.70
2022-08-07T08:26:20.477Z,2.50
2022-08-07T08:27:20.672Z,2.20
2022-08-07T08:28:24.115Z,2.20
2022-08-07T08:29:20.476Z,2.40
2022-08-07T08:30:20.533Z,1.90
2022-08-07T08:31:30.169Z,1.40
2022-08-07T08:32:25.403Z,1.80
2022-08-07T08:33:20.558Z,1.70
2022-08-07T08:34:27.133Z,1.50
2022-08-07T08:35:20.486Z,1.80
2022-08-07T08:36:25.670Z,1.70
2022-08-07T08:37:59.271Z,1.80
2022-08-07T08:38:20.506Z,2.10
2022-08-07T08:39:20.600Z,1.60
2022-08-07T08:40:23.563Z,1.60
2022-08-07T08:41:20.495Z,1.70
2022-08-07T08:42:20.631Z,1.70
2022-08-07T08:43:20.518Z,1.50
2022-08-07T08:44:21.282Z,1.40
2022-08-07T08:45:20.516Z,1.50
2022-08-07T08:46:22.005Z,1.50
2022-08-07T08:47:20.576Z,1.30
2022-08-07T08:48:20.665Z,1.10
2022-08-07T08:49:33.525Z,1.30
2022-08-07T08:50:28.173Z,1.50
2022-08-07T08:51:29.546Z,1.70
2022-08-07T08:52:20.493Z,1.40
2022-08-07T08:53:20.504Z,1.30
2022-08-07T08:54:20.516Z,1.30
2022-08-07T08:55:21.289Z,1.40
2022-08-07T08:56:24.414Z,1.30
2022-08-07T08:57:20.557Z,1.20
2022-08-07T08:58:28.304Z,1.70
2022-08-07T08:59:20.506Z,1.70
2022-08-07T09:00:20.498Z,1.80
2022-08-07T09:01:20.586Z,1.40
2022-08-07T09:02:36.418Z,1.40
2022-08-07T09:03:20.498Z,1.40
2022-08-07T09:04:26.079Z,1.40
2022-08-07T09:05:24.965Z,1.40
2022-08-07T09:06:20.507Z,1.50
2022-08-07T09:07:23.128Z,1.00
2022-08-07T09:08:28.135Z,1.40
2022-08-07T09:09:23.679Z,2.20
2022-08-07T09:10:20.550Z,1.70
2022-08-07T09:11:24.232Z,1.30
2022-08-07T09:12:31.914Z,1.80
2022-08-07T09:13:20.497Z,1.40
2022-08-07T09:14:20.504Z,1.20
2022-08-07T09:16:22.935Z,1.30
2022-08-07T09:16:26.612Z,1.40
2022-08-07T09:17:20.546Z,1.30
2022-08-07T09:18:22.817Z,1.20
2022-08-07T09:19:51.017Z,1.20
2022-08-07T09:20:34.956Z,1.20
2022-08-07T09:21:57.894Z,1.40
2022-08-07T09:24:28.321Z,1.30
2022-08-07T09:24:33.424Z,1.40
2022-08-07T09:24:53.917Z,1.30
2022-08-07T09:25:20.508Z,1.40
2022-08-07T09:26:20.930Z,1.30
2022-08-07T09:27:20.493Z,1.40
2022-08-07T09:30:04.271Z,1.60
2022-08-07T09:30:04.373Z,1.40
2022-08-07T09:30:25.409Z,1.20
2022-08-07T09:31:20.510Z,1.20
2022-08-07T09:32:20.998Z,1.10
2022-08-07T09:33:41.271Z,1.20
2022-08-07T09:34:20.887Z,1.50
2022-08-07T09:36:05.148Z,1.20
2022-08-07T09:36:20.492Z,1.80
2022-08-07T09:37:20.538Z,1.30
2022-08-07T09:38:21.092Z,1.10
2022-08-07T09:39:54.354Z,1.20
2022-08-07T09:40:20.522Z,1.20
2022-08-07T09:41:20.479Z,1.10
2022-08-07T09:42:23.154Z,1.10
2022-08-07T09:43:20.488Z,1.10
2022-08-07T09:44:32.700Z,1.20
2022-08-07T09:47:26.104Z,1.10
2022-08-07T09:47:51.488Z,1.10
2022-08-07T09:47:52.063Z,1.00
2022-08-07T09:48:20.840Z,1.30
2022-08-07T09:50:01.876Z,1.20
2022-08-07T09:50:20.477Z,1.10
2022-08-07T09:52:15.822Z,1.40
2022-08-07T09:52:34.838Z,1.10
2022-08-07T09:53:20.465Z,1.50
2022-08-07T09:54:20.473Z,1.10
2022-08-07T09:55:36.840Z,1.00
2022-08-07T09:56:37.748Z,1.20
2022-08-07T09:57:20.473Z,1.30
2022-08-07T09:58:20.458Z,1.00
2022-08-07T09:59:21.667Z,1.30
2022-08-07T10:00:20.477Z,1.10
2022-08-07T10:01:51.439Z,1.20
2022-08-07T10:02:20.465Z,1.10
2022-08-07T10:04:06.407Z,1.40
2022-08-07T10:04:28.195Z,1.20
2022-08-07T10:05:58.923Z,1.40
2022-08-07T10:06:24.606Z,1.30
2022-08-07T10:07:25.953Z,1.00
2022-08-07T10:08:20.455Z,1.30
2022-08-07T10:09:34.144Z,1.10
2022-08-07T10:10:21.442Z,1.30
2022-08-07T10:12:01.485Z,1.00
2022-08-07T10:12:21.710Z,1.40
2022-08-07T10:13:54.697Z,1.00
2022-08-07T10:14:22.979Z,1.00
2022-08-07T10:15:20.447Z,1.10
2022-08-07T10:16:20.440Z,1.00
2022-08-07T10:17:20.438Z,1.00
2022-08-07T10:18:20.435Z,1.20
2022-08-07T10:19:20.442Z,1.30
2022-08-07T10:20:20.579Z,1.10
2022-08-07T10:22:14.698Z,1.00
2022-08-07T10:22:33.398Z,1.10
2022-08-07T10:24:05.380Z,1.10
2022-08-07T10:24:21.469Z,1.10
2022-08-07T10:25:20.789Z,1.10
2022-08-07T10:26:24.659Z,1.10
2022-08-07T10:27:20.471Z,1.00
2022-08-07T10:28:20.426Z,1.20
2022-08-07T10:29:20.441Z,1.10
2022-08-07T10:30:20.435Z,1.10
2022-08-07T10:31:20.431Z,1.00
2022-08-07T10:32:50.978Z,1.10
2022-08-07T10:33:20.433Z,1.00
2022-08-07T10:34:31.979Z,1.00
2022-08-07T10:35:25.472Z,1.20
2022-08-07T10:36:29.585Z,1.10
2022-08-07T10:37:26.398Z,0.90
2022-08-07T10:38:35.252Z,1.10
2022-08-07T10:39:20.474Z,1.20
2022-08-07T10:40:20.941Z,1.10
2022-08-07T10:41:51.501Z,1.10
2022-08-07T10:42:21.249Z,1.00
2022-08-07T10:43:29.801Z,1.10
2022-08-07T10:44:28.883Z,1.10
2022-08-07T10:45:57.247Z,1.30
2022-08-07T10:46:20.421Z,1.10
2022-08-07T10:47:26.562Z,1.10
2022-08-07T10:48:20.420Z,1.10
2022-08-07T10:49:24.733Z,1.00
2022-08-07T10:50:20.436Z,1.20
2022-08-07T10:51:39.102Z,1.10
2022-08-07T10:52:20.470Z,1.30
2022-08-07T10:53:21.549Z,1.20
2022-08-07T10:54:20.419Z,1.10
2022-08-07T10:55:26.748Z,1.30
2022-08-07T10:56:21.012Z,1.10
2022-08-07T10:57:22.143Z,1.10
2022-08-07T10:58:24.960Z,1.00
2022-08-07T10:59:21.407Z,1.00
2022-08-07T11:00:39.033Z,1.10
2022-08-07T11:01:22.268Z,1.10
2022-08-07T11:02:33.130Z,1.10
2022-08-07T11:03:20.408Z,1.20
2022-08-07T11:04:32.312Z,1.20
2022-08-07T11:05:20.416Z,1.00
2022-08-07T11:06:21.899Z,1.00
2022-08-07T11:07:56.384Z,1.20
2022-08-07T11:08:20.395Z,1.00
2022-08-07T11:10:08.671Z,1.40
2022-08-07T11:10:20.407Z,1.20
2022-08-07T11:11:21.032Z,1.00
2022-08-07T11:12:32.364Z,1.10
2022-08-07T11:14:42.694Z,1.10
2022-08-07T11:14:45.195Z,1.10
2022-08-07T11:15:20.401Z,1.10
2022-08-07T11:16:20.401Z,1.10
2022-08-07T11:17:23.104Z,1.20
2022-08-07T11:18:20.400Z,1.10
2022-08-07T11:19:21.364Z,1.10
2022-08-07T11:20:20.393Z,1.10
2022-08-07T11:21:20.390Z,1.10
2022-08-07T11:22:33.297Z,1.10
2022-08-07T11:23:20.502Z,1.10
2022-08-07T11:24:20.403Z,1.20
2022-08-07T11:25:20.402Z,1.00
2022-08-07T11:26:20.391Z,1.20
2022-08-07T11:27:20.713Z,1.20
2022-08-07T11:28:20.391Z,1.00
2022-08-07T11:29:42.168Z,1.00
2022-08-07T11:30:39.069Z,1.10
2022-08-07T11:31:20.384Z,1.20
2022-08-07T11:32:25.675Z,1.10
2022-08-07T11:33:53.809Z,1.10
2022-08-07T11:34:20.384Z,0.90
2022-08-07T11:35:26.813Z,1.10
2022-08-07T11:36:30.481Z,1.20
2022-08-07T11:37:24.382Z,1.20
2022-08-07T11:38:21.349Z,1.10
2022-08-07T11:39:20.638Z,1.00
2022-08-07T11:40:20.448Z,1.20
2022-08-07T11:41:29.695Z,1.20
2022-08-07T11:42:20.384Z,1.20
2022-08-07T11:43:29.582Z,1.30
2022-08-07T11:44:20.377Z,1.20
2022-08-07T11:45:23.781Z,1.10
2022-08-07T11:46:20.377Z,1.20
2022-08-07T11:47:20.413Z,1.00
2022-08-07T11:48:29.521Z,1.00
2022-08-07T11:49:50.777Z,1.10
2022-08-07T11:50:31.691Z,1.10
2022-08-07T11:51:41.373Z,1.10
2022-08-07T11:52:20.364Z,1.10
2022-08-07T11:53:21.687Z,1.20
2022-08-07T11:54:25.400Z,1.30
2022-08-07T11:56:24.861Z,1.00
2022-08-07T11:56:26.885Z,1.30
2022-08-07T11:57:20.368Z,1.00
2022-08-07T11:58:20.368Z,1.00
2022-08-07T12:00:08.279Z,1.20
2022-08-07T12:00:20.368Z,1.20
2022-08-07T12:01:22.024Z,1.40
2022-08-07T12:02:20.844Z,1.00
2022-08-07T12:03:45.299Z,1.30
2022-08-07T12:04:20.374Z,1.30
2022-08-07T12:05:41.002Z,1.20
2022-08-07T12:06:36.878Z,1.30
2022-08-07T12:07:27.301Z,1.10
2022-08-07T12:08:26.109Z,1.10
2022-08-07T12:09:23.569Z,1.00
2022-08-07T12:10:20.368Z,1.00
2022-08-07T12:11:22.471Z,1.10
2022-08-07T12:12:20.364Z,1.00
2022-08-07T12:13:37.077Z,1.00
2022-08-07T12:14:20.369Z,1.30
2022-08-07T12:15:46.749Z,1.20
2022-08-07T12:16:29.937Z,1.20
2022-08-07T12:17:21.982Z,1.20
2022-08-07T12:18:22.211Z,1.10
2022-08-07T12:19:21.622Z,1.30
2022-08-07T12:20:30.448Z,1.10
2022-08-07T12:21:55.038Z,1.20
2022-08-07T12:22:38.159Z,1.30
2022-08-07T12:23:37.411Z,1.20
2022-08-07T12:24:37.976Z,1.10
2022-08-07T12:26:21.931Z,1.20
2022-08-07T12:26:22.811Z,1.10
2022-08-07T12:27:27.971Z,1.10
2022-08-07T12:28:24.123Z,1.20
2022-08-07T12:29:38.287Z,1.30
2022-08-07T12:30:20.351Z,1.00
2022-08-07T12:31:22.395Z,1.10
2022-08-07T12:32:20.347Z,1.20
2022-08-07T12:33:23.439Z,1.10
2022-08-07T12:34:20.349Z,1.20
2022-08-07T12:35:20.342Z,1.10
2022-08-07T12:36:20.350Z,1.10
2022-08-07T12:37:23.335Z,1.00
2022-08-07T12:38:39.151Z,1.20
2022-08-07T12:39:42.897Z,1.00
2022-08-07T12:40:44.830Z,1.20
2022-08-07T12:41:20.435Z,1.10
2022-08-07T12:42:22.828Z,1.00
2022-08-07T12:44:01.505Z,1.00
2022-08-07T12:44:20.340Z,1.10
2022-08-07T12:45:20.357Z,1.10
2022-08-07T12:46:26.346Z,1.10
2022-08-07T12:47:21.864Z,1.10
2022-08-07T12:48:27.992Z,1.10
2022-08-07T12:49:25.550Z,1.20
2022-08-07T12:50:38.486Z,1.10
2022-08-07T12:51:20.335Z,1.20
2022-08-07T12:52:20.340Z,1.10
2022-08-07T12:53:22.109Z,1.20
2022-08-07T12:54:37.285Z,1.10
2022-08-07T12:55:20.340Z,1.30
2022-08-07T12:56:20.336Z,1.10
2022-08-07T12:57:20.396Z,1.10
2022-08-07T12:58:20.347Z,1.10
2022-08-07T12:59:21.042Z,1.00
2022-08-07T13:00:31.286Z,1.10
2022-08-07T13:01:20.476Z,1.20
2022-08-07T13:02:20.335Z,1.00
2022-08-07T13:03:27.595Z,1.20
2022-08-07T13:04:31.687Z,1.00
2022-08-07T13:06:02.872Z,1.10
2022-08-07T13:06:21.822Z,1.10
2022-08-07T13:08:12.655Z,1.20
2022-08-07T13:08:21.025Z,1.20
2022-08-07T13:10:38.171Z,1.10
2022-08-07T13:10:39.802Z,1.20
2022-08-07T13:11:20.336Z,1.20
2022-08-07T13:12:20.337Z,1.20
2022-08-07T13:13:47.178Z,1.00
2022-08-07T13:14:20.334Z,1.10
2022-08-07T13:15:23.568Z,1.10
2022-08-07T13:16:21.603Z,1.10